Time;durP1;ratioP1;P1;durP2;ratioP2;P2;SDS_P1;SDS_P2;PMS_P1;PMS_P2;Temp;Humidity;BMP_temperature;BMP_pressure;BME280_temperature;BME280_humidity;BME280_pressure;Samples;Min_cycle;Max_cycle;Signal;HPM_P1;HPM_P2
2021/12/22 00:01:56;;;;;;;18.83;10.32;;;-5.00;99.90;;;;;;5014647;28;20193;-86
2021/12/22 00:04:24;;;;;;;18.23;10.18;;;-5.00;99.90;;;;;;5025630;28;20241;-85
2021/12/22 00:06:50;;;;;;;29.75;16.80;;;;;;;;;;5016460;28;20274;-87
2021/12/22 00:09:15;;;;;;;37.38;19.40;;;-4.90;99.90;;;;;;5016975;28;20224;-87
2021/12/22 00:11:42;;;;;;;43.27;21.73;;;-4.90;99.90;;;;;;5013812;28;20178;-86
2021/12/22 00:14:08;;;;;;;64.25;28.00;;;;;;;;;;5016174;28;20185;-86
2021/12/22 00:16:34;;;;;;;21.37;12.33;;;-4.80;99.90;;;;;;5015104;28;20583;-86
2021/12/22 00:18:59;;;;;;;17.20;9.73;;;-4.90;99.90;;;;;;5012809;28;20437;-86
2021/12/22 00:21:25;;;;;;;29.23;13.53;;;-4.90;99.90;;;;;;5019505;28;20232;-85
2021/12/22 00:23:50;;;;;;;25.80;10.70;;;-4.80;99.90;;;;;;5019991;28;20832;-86
2021/12/22 00:26:16;;;;;;;20.67;11.90;;;;;;;;;;5020451;28;20221;-87
2021/12/22 00:28:44;;;;;;;21.60;11.02;;;-4.60;99.90;;;;;;5015927;28;20210;-87
2021/12/22 00:31:13;;;;;;;21.00;10.32;;;;;;;;;;4997226;28;20184;-85
2021/12/22 00:33:47;;;;;;;15.88;9.50;;;-4.70;99.90;;;;;;5018282;28;20189;-84
2021/12/22 00:36:15;;;;;;;21.10;10.90;;;-4.70;99.90;;;;;;5030401;28;20182;-86
2021/12/22 00:38:41;;;;;;;17.92;9.70;;;-2.60;99.90;;;;;;5006790;28;20231;-86
2021/12/22 00:41:06;;;;;;;23.77;11.50;;;-4.80;99.90;;;;;;5015417;28;20225;-86
2021/12/22 00:43:32;;;;;;;24.20;11.63;;;;;;;;;;4996963;28;20894;-86
2021/12/22 00:45:58;;;;;;;18.77;10.83;;;;;;;;;;5014412;28;20789;-86
2021/12/22 00:48:24;;;;;;;20.93;10.40;;;;;;;;;;5013885;28;20456;-86
2021/12/22 00:50:50;;;;;;;27.27;12.93;;;-4.70;99.90;;;;;;5003721;28;20536;-86
2021/12/22 00:53:16;;;;;;;19.93;10.10;;;-4.80;99.90;;;;;;5016092;28;20198;-86
2021/12/22 00:55:43;;;;;;;22.67;10.85;;;-4.90;99.90;;;;;;4997720;28;20185;-87
2021/12/22 00:58:08;;;;;;;23.73;12.25;;;-4.90;99.90;;;;;;5003583;28;20533;-85
2021/12/22 01:00:35;;;;;;;18.70;9.53;;;-4.80;99.90;;;;;;4997966;28;20190;-86
2021/12/22 01:03:01;;;;;;;23.15;11.52;;;-4.90;99.90;;;;;;5013737;28;20206;-86
2021/12/22 01:05:27;;;;;;;19.65;9.93;;;-4.90;99.90;;;;;;5016967;28;20791;-86
2021/12/22 01:07:53;;;;;;;19.73;9.30;;;-4.90;99.90;;;;;;5018348;28;20693;-85
2021/12/22 01:10:23;;;;;;;15.80;9.20;;;-4.90;99.90;;;;;;4995504;28;20552;-85
2021/12/22 01:12:49;;;;;;;18.10;9.38;;;-4.90;99.90;;;;;;5011425;28;20284;-87
2021/12/22 01:15:15;;;;;;;14.48;8.50;;;-4.90;99.90;;;;;;5013646;28;20212;-85
2021/12/22 01:17:45;;;;;;;16.40;8.80;;;-5.00;99.90;;;;;;5006774;28;20178;-86
2021/12/22 01:20:49;;;;;;;24.42;10.68;;;-5.00;99.90;;;;;;5020275;28;20183;-86
2021/12/22 01:23:03;;;;;;;23.92;9.05;;;-5.00;99.90;;;;;;5026769;28;20213;-85
2021/12/22 01:25:31;;;;;;;19.98;9.38;;;-5.10;99.90;;;;;;5021535;28;20186;-85
2021/12/22 01:27:58;;;;;;;16.98;10.23;;;-5.00;99.90;;;;;;5021533;28;20201;-87
2021/12/22 01:30:26;;;;;;;20.95;10.45;;;-5.10;99.90;;;;;;5001544;28;20189;-86
2021/12/22 01:32:56;;;;;;;17.40;9.60;;;-5.10;99.90;;;;;;5013117;28;20198;-86
2021/12/22 01:35:24;;;;;;;21.20;9.82;;;-5.00;99.90;;;;;;5004093;28;20180;-87
2021/12/22 01:37:50;;;;;;;16.30;9.27;;;-5.00;99.90;;;;;;5018965;28;20178;-86
2021/12/22 01:40:16;;;;;;;21.80;10.57;;;-5.10;99.90;;;;;;5005211;28;20180;-87
2021/12/22 01:42:42;;;;;;;19.92;9.63;;;-4.90;99.90;;;;;;5004566;28;20206;-87
2021/12/22 01:49:11;;;;;;;21.70;9.80;;;-4.60;99.90;;;;;;4982070;28;20214;-87
2021/12/22 01:51:54;;;;;;;20.98;11.93;;;-4.60;99.90;;;;;;5019310;28;20174;-85
2021/12/22 01:54:19;;;;;;;20.55;9.27;;;-4.60;99.90;;;;;;5007175;28;20185;-87
2021/12/22 01:56:46;;;;;;;18.00;9.73;;;-4.70;99.90;;;;;;5021321;28;20842;-86
2021/12/22 01:59:12;;;;;;;19.63;10.07;;;-4.70;99.90;;;;;;5020774;28;20189;-86
2021/12/22 02:01:39;;;;;;;24.57;10.00;;;-4.70;99.90;;;;;;5015634;28;20189;-86
2021/12/22 02:04:10;;;;;;;20.98;11.05;;;-4.70;99.90;;;;;;5020775;28;20346;-86
2021/12/22 02:06:39;;;;;;;22.98;12.50;;;-4.70;99.90;;;;;;5001536;28;20868;-87
2021/12/22 02:09:05;;;;;;;27.40;13.00;;;-4.70;99.90;;;;;;5010037;28;20198;-85
2021/12/22 02:11:31;;;;;;;27.73;12.87;;;-4.80;99.90;;;;;;5002177;28;20284;-87
2021/12/22 02:14:01;;;;;;;31.45;13.38;;;-4.90;99.90;;;;;;5021984;28;20198;-86
2021/12/22 02:16:30;;;;;;;22.50;11.90;;;-5.00;99.90;;;;;;5003378;28;20175;-85
2021/12/22 02:18:57;;;;;;;22.05;11.80;;;-5.30;99.90;;;;;;5011919;28;20181;-87
2021/12/22 02:21:25;;;;;;;26.52;12.68;;;-5.40;99.90;;;;;;5020782;28;20747;-86
2021/12/22 02:23:52;;;;;;;29.98;14.65;;;-5.50;99.90;;;;;;5011279;28;20205;-85
2021/12/22 02:26:44;;;;;;;26.40;13.10;;;-5.60;99.90;;;;;;5038890;28;20169;-86
2021/12/22 02:29:08;;;;;;;29.25;13.50;;;-5.70;99.90;;;;;;5027241;28;20209;-87
2021/12/22 02:31:40;;;;;;;28.48;13.20;;;-5.80;99.90;;;;;;5024885;28;20661;-85
2021/12/22 02:34:06;;;;;;;35.20;14.38;;;-5.80;99.90;;;;;;5014227;28;20182;-86
2021/12/22 02:36:38;;;;;;;29.15;14.90;;;-5.80;99.90;;;;;;5021454;28;21085;-86
2021/12/22 02:39:05;;;;;;;20.63;12.95;;;-5.80;99.90;;;;;;5015167;28;20188;-87
2021/12/22 02:41:32;;;;;;;29.13;13.88;;;-5.80;99.90;;;;;;5031527;28;20225;-85
2021/12/22 02:43:59;;;;;;;23.20;11.77;;;-5.80;99.90;;;;;;5038511;28;20233;-86
2021/12/22 02:46:28;;;;;;;27.77;13.23;;;-5.70;99.90;;;;;;5008924;28;20829;-87
2021/12/22 02:48:54;;;;;;;34.20;15.23;;;-5.60;99.90;;;;;;5014727;28;20202;-87
2021/12/22 02:51:20;;;;;;;30.23;14.40;;;-5.50;99.90;;;;;;5017032;28;20171;-86
2021/12/22 02:54:13;;;;;;;36.40;13.27;;;-5.50;99.90;;;;;;5018759;28;20198;-86
2021/12/22 02:56:50;;;;;;;40.42;13.63;;;-5.40;99.90;;;;;;5017071;28;20228;-87
2021/12/22 03:04:43;;;;;;;29.38;15.23;;;-5.30;99.90;;;;;;5013361;28;20183;-84
2021/12/22 03:07:14;;;;;;;29.75;14.23;;;-5.40;99.90;;;;;;4998749;28;20750;-86
2021/12/22 03:09:39;;;;;;;32.70;14.52;;;-5.40;99.90;;;;;;5018050;28;20209;-86
2021/12/22 03:12:07;;;;;;;36.20;14.30;;;-5.40;99.90;;;;;;5008912;28;20768;-85
2021/12/22 03:14:33;;;;;;;29.85;14.32;;;-5.50;99.90;;;;;;4997273;28;20218;-86
2021/12/22 03:16:59;;;;;;;24.83;12.40;;;-5.50;99.90;;;;;;5011573;28;20188;-85
2021/12/22 03:19:28;;;;;;;19.53;10.43;;;-5.60;99.90;;;;;;5017647;28;20842;-86
2021/12/22 03:22:00;;;;;;;20.50;12.13;;;-5.60;99.90;;;;;;5003374;28;20460;-87
2021/12/22 03:24:27;;;;;;;36.03;14.80;;;;;;;;;;5011716;28;20186;-87
2021/12/22 03:26:52;;;;;;;23.38;12.48;;;-5.80;99.90;;;;;;4999745;28;20212;-86
2021/12/22 03:29:19;;;;;;;25.10;12.10;;;-5.90;99.90;;;;;;5015139;28;20206;-86
2021/12/22 03:31:46;;;;;;;28.35;14.55;;;-6.00;99.90;;;;;;5007486;28;20191;-87
2021/12/22 03:34:12;;;;;;;25.00;12.70;;;-6.00;99.90;;;;;;5002320;28;20177;-85
2021/12/22 03:36:41;;;;;;;28.52;12.93;;;-6.10;99.90;;;;;;5018965;28;20178;-87
2021/12/22 03:39:07;;;;;;;29.25;13.25;;;-6.10;99.90;;;;;;5014246;28;20186;-87
2021/12/22 03:41:35;;;;;;;28.00;13.53;;;-6.00;99.90;;;;;;5014219;28;20272;-86
2021/12/22 03:44:01;;;;;;;27.60;13.35;;;;;;;;;;5007647;28;20581;-87
2021/12/22 03:46:26;;;;;;;26.45;13.05;;;-6.10;99.90;;;;;;4994289;28;20272;-86
2021/12/22 03:48:52;;;;;;;28.40;14.40;;;-6.10;99.90;;;;;;5008934;28;20198;-87
2021/12/22 03:51:17;;;;;;;26.57;13.50;;;-6.20;99.90;;;;;;5004928;28;20213;-86
2021/12/22 03:53:43;;;;;;;25.63;11.70;;;-6.10;99.90;;;;;;5015298;28;20205;-87
2021/12/22 03:56:09;;;;;;;25.03;12.33;;;;;;;;;;5013132;28;20182;-86
2021/12/22 03:58:34;;;;;;;31.63;11.93;;;-6.10;99.90;;;;;;5000194;28;20186;-86
2021/12/22 04:01:00;;;;;;;23.73;12.10;;;-6.20;99.90;;;;;;5013428;28;20185;-86
2021/12/22 04:03:30;;;;;;;24.60;11.40;;;-6.00;99.90;;;;;;5011367;28;20298;-86
2021/12/22 04:05:56;;;;;;;29.45;14.35;;;-5.80;99.90;;;;;;4990246;28;20188;-85
2021/12/22 04:08:22;;;;;;;26.98;14.95;;;-5.80;99.90;;;;;;5007912;28;20233;-84
2021/12/22 04:10:49;;;;;;;23.10;13.10;;;-5.40;99.90;;;;;;5010131;28;20292;-87
2021/12/22 04:13:15;;;;;;;26.50;13.27;;;-5.10;99.90;;;;;;4996702;28;20208;-87
2021/12/22 04:15:41;;;;;;;28.58;12.77;;;-4.90;99.90;;;;;;5017147;28;20182;-86
2021/12/22 04:18:07;;;;;;;24.88;12.60;;;-4.80;99.90;;;;;;5001023;28;20260;-85
2021/12/22 04:20:33;;;;;;;27.20;12.10;;;-4.80;99.90;;;;;;5014145;28;20185;-86
2021/12/22 04:22:59;;;;;;;30.65;14.45;;;-4.70;99.90;;;;;;5014393;28;20720;-86
2021/12/22 04:25:26;;;;;;;25.50;13.75;;;-4.80;99.90;;;;;;5015352;28;20733;-86
2021/12/22 04:28:04;;;;;;;29.10;14.05;;;-4.90;99.90;;;;;;5016031;28;20495;-87
2021/12/22 04:30:32;;;;;;;28.48;14.00;;;-4.90;99.90;;;;;;5017532;28;20178;-86
2021/12/22 04:32:58;;;;;;;29.98;12.27;;;-4.90;99.90;;;;;;5014513;28;20602;-86
2021/12/22 04:35:23;;;;;;;33.73;12.43;;;-4.90;99.90;;;;;;5014372;28;20822;-86
2021/12/22 04:37:49;;;;;;;27.27;14.60;;;-4.80;99.90;;;;;;5013135;28;20218;-86
2021/12/22 04:40:15;;;;;;;29.80;12.83;;;-4.80;99.90;;;;;;5004256;28;20178;-86
2021/12/22 04:42:42;;;;;;;33.00;13.87;;;-4.90;99.90;;;;;;5000335;28;20225;-87
2021/12/22 04:45:08;;;;;;;23.30;12.25;;;-4.90;99.90;;;;;;5019224;28;20504;-87
2021/12/22 04:47:35;;;;;;;26.25;15.38;;;;;;;;;;5041921;28;21213;-85
2021/12/22 04:50:02;;;;;;;28.45;14.30;;;-4.90;99.90;;;;;;5015469;28;20229;-85
2021/12/22 04:52:37;;;;;;;31.63;14.88;;;-4.90;99.90;;;;;;5018187;28;20205;-86
2021/12/22 04:55:04;;;;;;;38.80;12.50;;;-4.90;99.90;;;;;;5021345;28;20189;-87
2021/12/22 04:57:33;;;;;;;25.00;12.98;;;-4.80;99.90;;;;;;5006249;28;20260;-86
2021/12/22 05:00:05;;;;;;;32.95;15.68;;;-4.80;99.90;;;;;;5025350;28;20178;-84
2021/12/22 05:02:31;;;;;;;24.70;13.45;;;-4.70;99.90;;;;;;5010909;28;20212;-85
2021/12/22 05:04:56;;;;;;;25.93;13.53;;;-4.70;99.90;;;;;;5016808;28;21498;-87
2021/12/22 05:07:22;;;;;;;31.50;14.17;;;-4.70;99.90;;;;;;5016180;28;20258;-84
2021/12/22 05:09:47;;;;;;;26.70;13.40;;;-4.80;99.90;;;;;;4992410;28;20205;-86
2021/12/22 05:12:13;;;;;;;34.63;14.30;;;-4.70;99.90;;;;;;5002201;28;20897;-86
2021/12/22 05:14:39;;;;;;;33.67;15.47;;;-4.70;99.90;;;;;;5016699;28;20554;-87
2021/12/22 05:17:07;;;;;;;27.40;13.30;;;-4.80;99.90;;;;;;5014840;28;20185;-86
2021/12/22 05:19:32;;;;;;;31.15;14.88;;;-4.90;99.90;;;;;;5007348;28;20198;-85
2021/12/22 05:21:58;;;;;;;30.00;15.37;;;-5.00;99.90;;;;;;5016186;28;20881;-87
2021/12/22 05:24:24;;;;;;;24.20;13.37;;;-5.10;99.90;;;;;;5018804;28;20173;-87
2021/12/22 05:26:50;;;;;;;25.50;14.20;;;-5.30;99.90;;;;;;5016651;28;20444;-85
2021/12/22 05:29:16;;;;;;;36.50;18.05;;;-5.50;99.90;;;;;;5017954;28;20441;-87
2021/12/22 05:31:42;;;;;;;33.33;17.48;;;-5.60;99.90;;;;;;5014228;28;20532;-85
2021/12/22 05:34:08;;;;;;;29.05;14.38;;;-5.60;99.90;;;;;;4998406;28;20174;-85
2021/12/22 05:36:34;;;;;;;29.80;16.30;;;-5.70;99.90;;;;;;5004191;28;20236;-85
2021/12/22 05:39:00;;;;;;;32.07;13.13;;;-5.70;99.90;;;;;;5012877;28;20182;-86
2021/12/22 05:41:25;;;;;;;26.30;12.63;;;-5.80;99.90;;;;;;5009695;28;20292;-86
2021/12/22 05:43:52;;;;;;;29.83;14.07;;;-5.90;99.90;;;;;;5006322;28;20212;-86
2021/12/22 05:46:17;;;;;;;28.17;14.05;;;-5.90;99.90;;;;;;5014049;28;20186;-85
2021/12/22 05:48:44;;;;;;;28.33;13.70;;;-5.90;99.90;;;;;;5010904;28;20843;-85
2021/12/22 05:51:10;;;;;;;21.95;13.35;;;-6.00;99.90;;;;;;5004045;28;20220;-85
2021/12/22 05:53:36;;;;;;;36.15;15.15;;;-6.00;99.90;;;;;;5014699;28;20210;-86
2021/12/22 05:56:02;;;;;;;52.45;19.10;;;-5.70;99.90;;;;;;5009786;28;20200;-86
2021/12/22 05:58:28;;;;;;;49.85;17.25;;;-5.60;99.90;;;;;;4997307;28;20646;-87
2021/12/22 06:00:54;;;;;;;53.90;21.93;;;-5.40;99.90;;;;;;4997265;28;20194;-87
2021/12/22 06:03:19;;;;;;;21.17;11.30;;;-5.30;99.90;;;;;;5013460;28;20453;-86
2021/12/22 06:05:45;;;;;;;36.13;15.23;;;-5.30;99.90;;;;;;5001874;28;20193;-86
2021/12/22 06:08:11;;;;;;;29.40;14.87;;;-5.20;99.90;;;;;;5005741;28;21464;-86
2021/12/22 06:10:36;;;;;;;17.93;8.47;;;-5.10;99.90;;;;;;5016746;28;20219;-85
2021/12/22 06:13:04;;;;;;;17.97;9.00;;;-5.10;99.90;;;;;;4997491;28;20464;-86
2021/12/22 06:15:30;;;;;;;21.80;9.32;;;-5.10;99.90;;;;;;5002078;28;20906;-86
2021/12/22 06:17:58;;;;;;;10.68;5.95;;;;;;;;;;5018757;28;20286;-85
2021/12/22 06:20:24;;;;;;;14.00;8.07;;;-5.00;99.90;;;;;;5017717;28;20731;-85
2021/12/22 06:22:50;;;;;;;33.97;12.50;;;;;;;;;;5016616;28;20198;-85
2021/12/22 06:25:17;;;;;;;24.95;9.07;;;;;;;;;;4996272;28;20487;-85
2021/12/22 06:27:42;;;;;;;37.00;14.60;;;-4.80;99.90;;;;;;5015046;28;20199;-85
2021/12/22 06:30:08;;;;;;;34.20;13.77;;;-4.70;99.90;;;;;;5017673;28;20210;-87
2021/12/22 06:32:34;;;;;;;30.38;16.15;;;-4.70;99.90;;;;;;5019865;28;20226;-84
2021/12/22 06:35:00;;;;;;;33.40;15.20;;;-4.60;99.90;;;;;;5021072;28;20212;-86
2021/12/22 06:37:25;;;;;;;26.50;14.80;;;-4.50;99.90;;;;;;5014127;28;20193;-87
2021/12/22 06:39:51;;;;;;;26.13;13.90;;;-4.50;99.90;;;;;;5017500;28;20193;-85
2021/12/22 06:42:16;;;;;;;25.73;15.07;;;-4.60;99.90;;;;;;5015831;28;20756;-85
2021/12/22 06:44:42;;;;;;;25.87;13.17;;;-4.70;99.90;;;;;;5016209;28;20213;-87
2021/12/22 06:47:10;;;;;;;32.40;15.50;;;-4.70;99.90;;;;;;4996563;28;20593;-85
2021/12/22 06:49:36;;;;;;;32.42;16.13;;;-4.70;99.90;;;;;;5015827;28;20209;-86
2021/12/22 06:52:03;;;;;;;30.67;15.35;;;-4.70;99.90;;;;;;5014992;28;20201;-86
2021/12/22 06:54:28;;;;;;;33.55;16.40;;;-4.70;99.90;;;;;;5016222;28;20194;-86
2021/12/22 06:56:54;;;;;;;29.93;15.20;;;-4.70;99.90;;;;;;5015036;28;20198;-85
2021/12/22 06:59:19;;;;;;;39.90;16.80;;;-4.70;99.90;;;;;;5024044;28;20273;-85
2021/12/22 07:01:45;;;;;;;25.40;14.10;;;-4.70;99.90;;;;;;5003561;28;20186;-86
2021/12/22 07:04:11;;;;;;;33.22;17.55;;;-4.70;99.90;;;;;;5019054;28;20177;-86
2021/12/22 07:06:37;;;;;;;33.87;16.90;;;-4.60;99.90;;;;;;5014542;28;20185;-85
2021/12/22 07:09:04;;;;;;;29.13;15.40;;;-4.60;99.90;;;;;;5013181;28;20615;-85
2021/12/22 07:11:30;;;;;;;33.05;15.55;;;-4.60;99.90;;;;;;4999440;28;20193;-85
2021/12/22 07:13:55;;;;;;;34.73;16.53;;;-4.50;99.90;;;;;;5003157;28;20202;-86
2021/12/22 07:16:21;;;;;;;37.53;16.73;;;-4.60;99.90;;;;;;5015845;28;20187;-85
2021/12/22 07:18:46;;;;;;;38.57;21.23;;;-4.90;99.90;;;;;;5019802;28;20239;-86
2021/12/22 07:21:13;;;;;;;32.37;16.40;;;;;;;;;;5001276;28;20316;-85
2021/12/22 07:23:38;;;;;;;45.97;19.77;;;-4.80;99.90;;;;;;4996726;28;20213;-85
2021/12/22 07:26:04;;;;;;;39.10;19.03;;;-4.90;99.90;;;;;;5018797;28;20194;-86
2021/12/22 07:28:29;;;;;;;38.20;17.40;;;-4.80;99.90;;;;;;5012369;28;20217;-86
2021/12/22 07:30:55;;;;;;;39.10;19.97;;;-4.80;99.90;;;;;;5009308;28;20208;-86
2021/12/22 07:33:20;;;;;;;27.50;15.23;;;-4.80;99.90;;;;;;5010841;28;20252;-85
2021/12/22 07:36:00;;;;;;;40.80;17.47;;;-4.90;99.90;;;;;;5008336;28;20182;-86
2021/12/22 07:38:30;;;;;;;34.13;15.02;;;-4.90;99.90;;;;;;5013029;28;20272;-86
2021/12/22 07:40:56;;;;;;;53.92;26.30;;;-4.90;99.90;;;;;;5000292;28;20254;-87
2021/12/22 07:43:23;;;;;;;40.45;20.20;;;-4.90;99.90;;;;;;5005473;28;20301;-86
2021/12/22 07:45:48;;;;;;;38.78;16.92;;;-4.90;99.90;;;;;;5014700;28;20233;-88
2021/12/22 07:48:15;;;;;;;33.40;15.60;;;;;;;;;;5012106;28;20202;-88
2021/12/22 07:50:41;;;;;;;35.35;17.17;;;;;;;;;;5013059;28;21263;-86
2021/12/22 07:53:06;;;;;;;31.75;17.23;;;-4.90;99.90;;;;;;5015162;28;20620;-87
2021/12/22 07:55:32;;;;;;;48.83;22.70;;;;;;;;;;4995302;28;20181;-86
2021/12/22 07:57:58;;;;;;;42.58;17.20;;;-4.70;99.90;;;;;;4994720;28;20262;-85
2021/12/22 08:00:24;;;;;;;40.63;19.70;;;-4.70;99.90;;;;;;5013971;28;20242;-86
2021/12/22 08:02:49;;;;;;;29.90;14.97;;;-4.70;99.90;;;;;;5016015;28;20267;-86
2021/12/22 08:05:15;;;;;;;31.60;17.57;;;-4.70;99.90;;;;;;5012738;28;20210;-86
2021/12/22 08:07:41;;;;;;;43.90;16.50;;;-4.60;99.90;;;;;;5001945;28;20601;-86
2021/12/22 08:10:07;;;;;;;30.57;15.70;;;-4.70;99.90;;;;;;5012311;28;20614;-86
2021/12/22 08:12:34;;;;;;;32.17;16.83;;;-4.70;99.90;;;;;;5010317;28;20201;-87
2021/12/22 08:15:00;;;;;;;36.92;16.65;;;-4.70;99.90;;;;;;5014715;28;20178;-86
2021/12/22 08:17:27;;;;;;;38.33;17.60;;;-4.50;99.90;;;;;;5006872;28;20185;-86
2021/12/22 08:19:54;;;;;;;36.28;19.27;;;-3.80;99.90;;;;;;5009516;28;20496;-87
2021/12/22 08:22:20;;;;;;;44.97;22.15;;;-2.90;99.90;;;;;;4995088;28;20205;-86
2021/12/22 08:24:46;;;;;;;42.95;22.65;;;-1.90;99.90;;;;;;4999321;28;20562;-87
2021/12/22 08:27:11;;;;;;;52.87;25.57;;;-1.40;99.90;;;;;;5006161;28;20194;-87
2021/12/22 08:29:42;;;;;;;48.47;24.80;;;-0.90;99.90;;;;;;5013148;28;20229;-87
2021/12/22 08:32:09;;;;;;;78.85;33.50;;;-0.30;99.90;;;;;;4998677;28;20464;-86
2021/12/22 08:34:37;;;;;;;68.82;28.55;;;0.10;99.90;;;;;;5011522;28;20205;-86
2021/12/22 08:39:49;;;;;;;34.97;18.45;;;0.50;99.90;;;;;;5016439;28;20188;-85
2021/12/22 08:42:15;;;;;;;24.40;14.13;;;0.40;99.90;;;;;;5015650;28;21169;-85
2021/12/22 08:44:40;;;;;;;35.17;17.17;;;0.50;99.90;;;;;;5013502;28;20266;-85
2021/12/22 08:47:06;;;;;;;46.53;22.13;;;0.50;99.90;;;;;;5009804;28;20269;-85
2021/12/22 08:49:33;;;;;;;30.75;16.85;;;0.40;99.90;;;;;;5011277;28;20205;-86
2021/12/22 08:51:59;;;;;;;29.27;16.85;;;0.50;99.90;;;;;;5008646;28;21081;-85
2021/12/22 08:54:25;;;;;;;30.70;16.95;;;0.60;99.90;;;;;;5002285;28;20784;-85
2021/12/22 08:56:52;;;;;;;26.27;14.60;;;0.80;99.90;;;;;;5018687;28;20194;-86
2021/12/22 08:59:18;;;;;;;25.40;14.38;;;0.90;99.90;;;;;;5015204;28;20220;-87
2021/12/22 09:01:44;;;;;;;24.10;13.33;;;1.40;99.90;;;;;;5014306;23;20659;-83
2021/12/22 09:04:10;;;;;;;34.67;14.83;;;1.40;99.90;;;;;;5040760;28;21038;-83
2021/12/22 09:06:36;;;;;;;23.75;13.75;;;1.60;99.90;;;;;;5045066;28;20428;-84
2021/12/22 09:09:03;;;;;;;27.63;13.40;;;2.20;99.90;;;;;;5027815;28;20205;-83
2021/12/22 09:11:29;;;;;;;23.65;12.93;;;2.10;99.90;;;;;;5037958;28;20184;-83
2021/12/22 09:13:55;;;;;;;31.23;15.13;;;2.20;99.90;;;;;;5017518;28;20178;-83
2021/12/22 09:16:21;;;;;;;29.23;13.07;;;1.90;99.90;;;;;;5019647;28;20676;-83
2021/12/22 09:18:46;;;;;;;23.70;14.30;;;1.70;99.90;;;;;;5015886;28;20455;-83
2021/12/22 09:21:12;;;;;;;31.47;16.37;;;1.70;99.90;;;;;;5016695;28;20212;-83
2021/12/22 09:23:39;;;;;;;28.33;14.30;;;1.50;99.90;;;;;;5023253;28;20189;-84
2021/12/22 09:26:05;;;;;;;27.55;13.10;;;1.30;99.90;;;;;;5023625;28;20446;-84
2021/12/22 09:28:31;;;;;;;31.38;14.23;;;1.40;99.90;;;;;;5021367;28;20197;-84
2021/12/22 09:30:58;;;;;;;35.80;12.88;;;1.40;99.90;;;;;;5034665;28;20328;-83
2021/12/22 09:33:25;;;;;;;27.38;13.95;;;1.40;99.90;;;;;;5036087;28;20645;-84
2021/12/22 09:35:52;;;;;;;24.85;13.35;;;1.10;99.90;;;;;;5018070;28;20669;-84
2021/12/22 09:38:18;;;;;;;25.60;15.07;;;0.90;99.90;;;;;;5036152;28;20249;-83
2021/12/22 09:40:45;;;;;;;28.70;13.87;;;0.60;99.90;;;;;;5025969;28;20287;-84
2021/12/22 09:43:11;;;;;;;25.90;15.15;;;0.20;99.90;;;;;;5043358;28;20842;-83
2021/12/22 09:45:42;;;;;;;29.92;14.93;;;-0.20;99.90;;;;;;5043287;28;20831;-83
2021/12/22 09:50:49;;;;;;;26.90;13.67;;;-0.50;99.90;;;;;;5044237;28;20193;-83
2021/12/22 09:53:20;;;;;;;29.38;15.48;;;-0.50;99.90;;;;;;5023305;28;20208;-83
2021/12/22 09:55:47;;;;;;;27.88;14.95;;;-0.60;99.90;;;;;;5022128;28;20252;-83
2021/12/22 09:58:14;;;;;;;29.17;15.43;;;-0.60;99.90;;;;;;5043989;28;20192;-83
2021/12/22 10:00:41;;;;;;;30.77;19.10;;;-0.60;99.90;;;;;;5027183;28;20209;-84
2021/12/22 10:03:08;;;;;;;38.95;17.65;;;-0.60;99.90;;;;;;5022967;28;20198;-83
2021/12/22 10:05:36;;;;;;;25.42;14.52;;;-0.60;99.90;;;;;;5025262;28;20598;-84
2021/12/22 10:08:11;;;;;;;28.95;16.10;;;-0.60;99.90;;;;;;5023718;28;20213;-83
2021/12/22 10:10:40;;;;;;;37.05;17.85;;;-0.60;99.90;;;;;;5043161;28;20192;-83
2021/12/22 10:13:07;;;;;;;27.25;14.70;;;-0.60;99.90;;;;;;5023691;28;20216;-83
2021/12/22 10:15:34;;;;;;;27.67;13.73;;;-0.60;99.90;;;;;;5026626;28;20205;-83
2021/12/22 10:18:16;;;;;;;23.08;14.20;;;-0.60;99.90;;;;;;5040724;28;20205;-82
2021/12/22 10:20:44;;;;;;;26.80;14.13;;;-0.70;99.90;;;;;;5024591;28;20292;-83
2021/12/22 10:23:25;;;;;;;29.55;14.98;;;-0.70;99.90;;;;;;5024033;28;20178;-83
2021/12/22 10:26:00;;;;;;;28.08;15.07;;;-0.70;99.90;;;;;;5027235;28;20186;-83
2021/12/22 10:28:27;;;;;;;25.02;15.38;;;-0.50;99.90;;;;;;5039082;28;20197;-83
2021/12/22 10:30:55;;;;;;;34.45;16.10;;;-0.30;99.90;;;;;;5025404;28;20252;-83
2021/12/22 10:33:29;;;;;;;31.27;16.42;;;-0.30;99.90;;;;;;5024380;28;20188;-83
2021/12/22 10:36:00;;;;;;;25.98;15.75;;;-0.10;99.90;;;;;;5037766;28;20178;-83
2021/12/22 10:38:28;;;;;;;28.35;13.75;;;-0.20;99.90;;;;;;5038143;28;20245;-82
2021/12/22 10:41:01;;;;;;;28.90;16.65;;;0.00;99.90;;;;;;5015400;28;20217;-83
2021/12/22 10:43:32;;;;;;;23.50;14.05;;;0.10;99.90;;;;;;5012742;28;20182;-83
2021/12/22 10:46:00;;;;;;;30.30;15.52;;;0.20;99.90;;;;;;5037404;28;20182;-82
2021/12/22 10:51:19;;;;;;;33.47;15.90;;;0.40;99.90;;;;;;5037696;28;20297;-82
2021/12/22 10:53:50;;;;;;;25.15;14.25;;;0.50;99.90;;;;;;5037006;28;20212;-83
2021/12/22 10:56:30;;;;;;;24.08;12.70;;;0.50;99.90;;;;;;5038646;28;20170;-82
2021/12/22 10:59:04;;;;;;;17.60;8.27;;;0.40;99.90;;;;;;5021622;28;20181;-82
2021/12/22 11:01:30;;;;;;;18.65;11.00;;;0.40;99.90;;;;;;5010789;28;20186;-82
2021/12/22 11:04:01;;;;;;;19.80;8.97;;;0.30;99.90;;;;;;5035568;28;20194;-82
2021/12/22 11:06:30;;;;;;;21.30;11.10;;;0.20;99.90;;;;;;5008484;28;20450;-82
2021/12/22 11:09:15;;;;;;;28.55;15.75;;;0.20;99.90;;;;;;5027464;28;20198;-82
2021/12/22 11:11:45;;;;;;;22.30;11.65;;;0.20;99.90;;;;;;5037717;28;20572;-82
2021/12/22 11:14:16;;;;;;;28.10;13.77;;;0.40;99.90;;;;;;5016338;28;20200;-82
2021/12/22 11:17:10;;;;;;;32.35;16.02;;;0.40;99.90;;;;;;5030599;28;20264;-81
2021/12/22 11:20:05;;;;;;;21.95;12.63;;;0.60;99.90;;;;;;5013292;28;20209;-82
2021/12/22 11:22:51;;;;;;;23.20;10.02;;;0.60;99.90;;;;;;5030862;28;20188;-82
2021/12/22 11:25:18;;;;;;;25.50;10.05;;;0.50;99.90;;;;;;5033716;28;20614;-82
2021/12/22 11:27:44;;;;;;;24.23;12.38;;;0.40;99.90;;;;;;5019576;28;20170;-81
2021/12/22 11:30:11;;;;;;;23.67;14.73;;;0.40;99.90;;;;;;5037517;28;20200;-82
2021/12/22 11:32:38;;;;;;;24.30;12.65;;;0.50;99.90;;;;;;5036335;28;20182;-81
2021/12/22 11:35:07;;;;;;;29.67;15.75;;;0.40;99.90;;;;;;5034650;28;20188;-82
2021/12/22 11:37:33;;;;;;;30.90;14.40;;;0.50;99.90;;;;;;5016209;28;20182;-82
2021/12/22 11:39:59;;;;;;;24.40;15.30;;;0.70;99.90;;;;;;5021410;28;20209;-83
2021/12/22 11:42:30;;;;;;;27.20;16.07;;;0.80;99.90;;;;;;5035873;28;20432;-82
2021/12/22 11:45:01;;;;;;;27.25;16.33;;;0.90;99.90;;;;;;5036972;28;20479;-82
2021/12/22 11:47:27;;;;;;;21.73;11.85;;;1.00;99.90;;;;;;5036385;28;20974;-82
2021/12/22 11:49:59;;;;;;;23.33;15.07;;;1.10;99.90;;;;;;5014218;28;20256;-82
2021/12/22 11:52:39;;;;;;;32.17;16.00;;;1.00;99.90;;;;;;5017987;28;20178;-82
2021/12/22 11:55:07;;;;;;;42.50;20.63;;;1.00;99.90;;;;;;5021988;28;20165;-83
2021/12/22 11:57:32;;;;;;;29.25;14.15;;;1.00;99.90;;;;;;5019849;28;20182;-81
2021/12/22 12:00:32;;;;;;;29.53;13.07;;;1.00;99.90;;;;;;5019798;28;20201;-82
2021/12/22 12:03:19;;;;;;;32.38;21.95;;;1.10;99.90;;;;;;5036326;28;20279;-82
2021/12/22 12:06:06;;;;;;;23.98;13.20;;;1.20;99.90;;;;;;5031172;28;20724;-82
2021/12/22 12:08:37;;;;;;;28.02;14.90;;;1.30;99.90;;;;;;5032108;28;20197;-82
2021/12/22 12:11:10;;;;;;;24.45;14.18;;;1.30;99.90;;;;;;5035578;28;20210;-82
2021/12/22 12:14:04;;;;;;;27.80;16.92;;;1.40;99.90;;;;;;5022945;28;20170;-82
2021/12/22 12:22:20;;;;;;;26.45;15.23;;;1.30;99.90;;;;;;5034384;28;20192;-81
2021/12/22 12:25:08;;;;;;;28.25;14.98;;;1.20;99.90;;;;;;5035866;28;20319;-82
2021/12/22 12:27:42;;;;;;;32.67;15.00;;;1.20;99.90;;;;;;5036597;28;20188;-82
2021/12/22 12:30:32;;;;;;;29.45;15.13;;;1.30;99.90;;;;;;5032179;28;20316;-82
2021/12/22 12:33:01;;;;;;;25.02;13.95;;;1.40;99.90;;;;;;5034927;28;20204;-82
2021/12/22 12:35:30;;;;;;;19.30;11.50;;;1.50;99.90;;;;;;5032309;28;20712;-82
2021/12/22 12:38:16;;;;;;;27.88;15.27;;;1.50;99.90;;;;;;5034073;28;20177;-82
2021/12/22 12:41:10;;;;;;;29.42;17.70;;;1.30;99.90;;;;;;5012197;28;20202;-82
2021/12/22 12:43:46;;;;;;;30.35;13.23;;;1.20;99.90;;;;;;5021285;28;20174;-82
2021/12/22 12:46:23;;;;;;;32.85;16.95;;;1.30;99.90;;;;;;5023979;28;20183;-83
2021/12/22 12:49:07;;;;;;;23.02;13.35;;;1.30;99.90;;;;;;5021097;28;20190;-82
2021/12/22 12:51:37;;;;;;;21.98;11.80;;;1.30;99.90;;;;;;5038021;28;20626;-82
2021/12/22 12:54:33;;;;;;;25.15;12.98;;;1.40;99.90;;;;;;5037263;28;20174;-82
2021/12/22 12:57:00;;;;;;;26.52;13.70;;;1.40;99.90;;;;;;5033211;28;21084;-82
2021/12/22 12:59:37;;;;;;;33.63;13.82;;;1.40;99.90;;;;;;5023184;28;20201;-82
2021/12/22 13:02:04;;;;;;;25.83;15.23;;;1.40;99.90;;;;;;5009447;28;20314;-83
2021/12/22 13:04:37;;;;;;;28.90;14.60;;;1.50;99.90;;;;;;5035803;28;20185;-82
2021/12/22 13:07:04;;;;;;;33.55;18.15;;;1.60;99.90;;;;;;5032950;28;20190;-82